Time;durP1;ratioP1;P1;durP2;ratioP2;P2;SDS_P1;SDS_P2;PMS_P1;PMS_P2;Temp;Humidity;BMP_temperature;BMP_pressure;BME280_temperature;BME280_humidity;BME280_pressure;Samples;Min_cycle;Max_cycle;Signal;HPM_P1;HPM_P2
2021/06/29 00:01:52;;;;;;;2.17;1.33;;;;;;;;;;4930128;28;20074;-78
2021/06/29 00:04:19;;;;;;;1.40;1.00;;;;;;;;;;4923555;28;20067;-76
2021/06/29 00:06:45;;;;;;;1.40;1.00;;;;;;;;;;4929602;28;22614;-77
2021/06/29 00:09:11;;;;;;;1.65;1.00;;;;;;;;;;4931018;28;20082;-76
2021/06/29 00:11:38;;;;;;;1.90;1.13;;;;;;;;;;4928140;28;20063;-77
2021/06/29 00:14:04;;;;;;;2.22;1.08;;;;;;;;;;4929864;28;20067;-76
2021/06/29 00:16:31;;;;;;;1.92;1.08;;;;;;;;;;4931417;28;20059;-76
2021/06/29 00:18:57;;;;;;;1.58;0.90;;;;;;;;;;4932404;28;20054;-77
2021/06/29 00:21:24;;;;;;;2.00;1.10;;;;;;;;;;4930806;28;20075;-77
2021/06/29 00:23:50;;;;;;;2.55;1.05;;;;;;;;;;4932026;28;20059;-77
2021/06/29 00:26:18;;;;;;;1.63;0.98;;;;;;;;;;4929564;28;20122;-78
2021/06/29 00:28:44;;;;;;;1.92;1.10;;;;;;;;;;4929730;29;21575;-77
2021/06/29 00:31:11;;;;;;;1.70;0.95;;;;;;;;;;4930203;29;20063;-77
2021/06/29 00:33:38;;;;;;;1.60;1.10;;;;;;;;;;4929279;29;20087;-77
2021/06/29 00:36:05;;;;;;;2.30;1.20;;;;;;;;;;4925872;28;20056;-78
2021/06/29 00:38:32;;;;;;;5.03;1.00;;;;;;;;;;4929130;28;20067;-77
2021/06/29 00:40:58;;;;;;;3.70;1.38;;;;;;;;;;4944835;28;20063;-77
2021/06/29 00:43:24;;;;;;;1.92;1.05;;;;;;;;;;4925852;28;20075;-76
2021/06/29 00:45:51;;;;;;;1.48;0.93;;;;;;;;;;4925999;29;20114;-77
2021/06/29 00:48:17;;;;;;;2.10;1.08;;;;;;;;;;4929712;28;20451;-77
2021/06/29 00:50:44;;;;;;;2.42;1.00;;;;;;;;;;4928785;28;20028;-77
2021/06/29 00:53:11;;;;;;;1.67;1.00;;;;;;;;;;4920119;28;20551;-77
2021/06/29 00:55:38;;;;;;;2.35;1.20;;;;;;;;;;4928747;28;20074;-78
2021/06/29 00:58:11;;;;;;;1.40;0.85;;;;;;;;;;4929984;29;20055;-78
2021/06/29 01:00:39;;;;;;;1.58;1.00;;;;;;;;;;4929532;28;20044;-78
2021/06/29 01:03:05;;;;;;;1.90;1.00;;;;;;;;;;4930258;28;20555;-77
2021/06/29 01:05:32;;;;;;;1.65;1.00;;;;;;;;;;4930397;28;20522;-78
2021/06/29 01:07:58;;;;;;;1.60;1.10;;;;;;;;;;4925598;28;20056;-77
2021/06/29 01:10:25;;;;;;;1.80;0.90;;;;;;;;;;4927809;29;20098;-77
2021/06/29 01:12:52;;;;;;;1.52;1.00;;;;;;;;;;4928406;28;20123;-77
2021/06/29 01:15:23;;;;;;;1.42;0.93;;;;;;;;;;4926732;28;20447;-78
2021/06/29 01:17:50;;;;;;;2.00;1.00;;;;;;;;;;4923306;28;20294;-78
2021/06/29 01:20:22;;;;;;;1.90;1.20;;;;;;;;;;4943220;28;20067;-78
2021/06/29 01:22:51;;;;;;;2.13;1.10;;;;;;;;;;4931051;28;20974;-77
2021/06/29 01:25:18;;;;;;;2.15;1.20;;;;;;;;;;4933162;28;20055;-77
2021/06/29 01:27:54;;;;;;;1.38;0.93;;;;;;;;;;4930801;28;20428;-76
2021/06/29 01:32:48;;;;;;;2.28;1.10;;;;;;;;;;4936407;28;20067;-76
2021/06/29 01:35:14;;;;;;;2.75;1.02;;;;;;;;;;4933919;28;20507;-77
2021/06/29 01:37:41;;;;;;;2.80;1.00;;;;;;;;;;4932772;28;20122;-78
2021/06/29 01:42:34;;;;;;;2.08;1.10;;;;;;;;;;4923361;28;20052;-75
2021/06/29 01:45:01;;;;;;;1.83;1.05;;;;;;;;;;4933838;28;20130;-76
2021/06/29 01:47:52;;;;;;;1.67;1.10;;;;;;;;;;4948161;28;20055;-76
2021/06/29 01:50:19;;;;;;;;;;;;;;;;;;4927853;29;20097;-76
2021/06/29 01:52:46;;;;;;;1.65;1.00;;;;;;;;;;4930212;28;21767;-76
2021/06/29 01:55:12;;;;;;;1.80;1.08;;;;;;;;;;4929470;29;20488;-76
2021/06/29 01:57:42;;;;;;;2.63;1.08;;;;;;;;;;4932749;29;20071;-76
2021/06/29 02:00:10;;;;;;;1.60;1.05;;;;;;;;;;4929734;28;20126;-77
2021/06/29 02:02:37;;;;;;;1.95;1.00;;;;;;;;;;4944821;28;20059;-76
2021/06/29 02:05:04;;;;;;;3.35;1.23;;;;;;;;;;4932666;28;20074;-77
2021/06/29 02:07:30;;;;;;;2.35;1.10;;;;;;;;;;4927474;28;20063;-76
2021/06/29 02:09:56;;;;;;;1.65;1.00;;;;;;;;;;4936370;28;20615;-76
2021/06/29 02:12:23;;;;;;;2.50;1.10;;;;;;;;;;4931719;28;20083;-76
2021/06/29 02:14:49;;;;;;;1.75;1.08;;;;;;;;;;4929483;28;20759;-77
2021/06/29 02:17:16;;;;;;;1.50;1.00;;;;;;;;;;4933634;28;20060;-77
2021/06/29 02:19:42;;;;;;;1.55;1.00;;;;;;;;;;4936846;28;20052;-75
2021/06/29 02:22:09;;;;;;;2.95;1.00;;;;;;;;;;4931559;29;20107;-77
2021/06/29 02:24:35;;;;;;;1.40;0.90;;;;;;;;;;4931932;28;20550;-77
2021/06/29 02:27:01;;;;;;;2.35;1.02;;;;;;;;;;4946739;28;20514;-76
2021/06/29 02:29:28;;;;;;;2.22;0.98;;;;;;;;;;4915771;29;20063;-76
2021/06/29 02:31:54;;;;;;;1.58;0.90;;;;;;;;;;4934123;28;20412;-76
2021/06/29 02:34:21;;;;;;;1.65;1.05;;;;;;;;;;4930891;28;20490;-77
2021/06/29 02:36:47;;;;;;;1.60;0.82;;;;;;;;;;4930362;29;20056;-77
2021/06/29 02:39:13;;;;;;;1.83;1.00;;;;;;;;;;4939173;28;20031;-76
2021/06/29 02:41:40;;;;;;;1.55;0.90;;;;;;;;;;4930188;28;20513;-77
2021/06/29 02:44:06;;;;;;;1.98;1.00;;;;;;;;;;4948687;29;20066;-76
2021/06/29 02:46:35;;;;;;;2.53;1.10;;;;;;;;;;4931011;28;20482;-77
2021/06/29 02:49:01;;;;;;;1.38;0.82;;;;;;;;;;4930199;28;20056;-76
2021/06/29 02:51:27;;;;;;;1.27;0.95;;;;;;;;;;4927619;28;20099;-76
2021/06/29 02:53:54;;;;;;;2.50;0.90;;;;;;;;;;4929772;29;20067;-76
2021/06/29 02:56:39;;;;;;;1.55;1.00;;;;;;;;;;4931090;28;20083;-78
2021/06/29 02:59:08;;;;;;;1.20;0.90;;;;;;;;;;4930796;28;20492;-82
2021/06/29 03:01:35;;;;;;;1.90;1.00;;;;;;;;;;4932529;28;20047;-76
2021/06/29 03:04:01;;;;;;;1.17;0.70;;;;;;;;;;4930984;29;20059;-75
2021/06/29 03:06:28;;;;;;;1.90;1.00;;;;;;;;;;4928383;28;20067;-76
2021/06/29 03:08:54;;;;;;;1.77;1.20;;;;;;;;;;4931381;29;20040;-76
2021/06/29 03:11:21;;;;;;;1.30;0.82;;;;;;;;;;4932342;28;20520;-77
2021/06/29 03:13:48;;;;;;;1.77;1.00;;;;;;;;;;4928236;29;20202;-76
2021/06/29 03:16:14;;;;;;;1.40;0.90;;;;;;;;;;4931842;29;20074;-76
2021/06/29 03:18:40;;;;;;;1.30;0.95;;;;;;;;;;4921336;29;20130;-76
2021/06/29 03:21:07;;;;;;;2.15;1.10;;;;;;;;;;4929361;28;20075;-78
2021/06/29 03:23:34;;;;;;;1.50;0.93;;;;;;;;;;4928969;28;20067;-76
2021/06/29 03:26:01;;;;;;;1.10;0.82;;;;;;;;;;4930038;28;20063;-77
2021/06/29 03:28:27;;;;;;;1.90;0.80;;;;;;;;;;4929312;28;20073;-76
2021/06/29 03:30:53;;;;;;;1.73;0.90;;;;;;;;;;4925969;28;20051;-76
2021/06/29 03:33:20;;;;;;;2.03;1.10;;;;;;;;;;4930195;29;20086;-77
2021/06/29 03:35:46;;;;;;;2.65;0.90;;;;;;;;;;4931782;28;20439;-76
2021/06/29 03:38:13;;;;;;;2.13;1.10;;;;;;;;;;4930663;28;20059;-77
2021/06/29 03:40:40;;;;;;;1.33;1.10;;;;;;;;;;4931462;28;20047;-76
2021/06/29 03:43:06;;;;;;;1.30;0.93;;;;;;;;;;4932157;29;20051;-76
2021/06/29 03:45:33;;;;;;;1.88;0.82;;;;;;;;;;4918191;28;20078;-76
2021/06/29 03:47:59;;;;;;;2.08;0.88;;;;;;;;;;4933793;28;20063;-76
2021/06/29 03:50:26;;;;;;;1.10;0.77;;;;;;;;;;4923488;28;20070;-78
2021/06/29 03:52:53;;;;;;;1.75;0.90;;;;;;;;;;4930919;28;20419;-77
2021/06/29 03:55:19;;;;;;;1.48;0.80;;;;;;;;;;4928018;29;20040;-77
2021/06/29 03:57:46;;;;;;;1.90;0.90;;;;;;;;;;4930233;29;22140;-76
2021/06/29 04:00:13;;;;;;;1.50;0.90;;;;;;;;;;4930854;29;20042;-77
2021/06/29 04:02:39;;;;;;;1.70;1.02;;;;;;;;;;4923356;28;20492;-76
2021/06/29 04:05:06;;;;;;;1.40;0.80;;;;;;;;;;4926886;29;20096;-76
2021/06/29 04:07:33;;;;;;;1.27;0.82;;;;;;;;;;4929729;28;20136;-76
2021/06/29 04:09:59;;;;;;;1.40;0.80;;;;;;;;;;4939593;28;20436;-76
2021/06/29 04:12:28;;;;;;;1.13;0.70;;;;;;;;;;4929699;28;20056;-77
2021/06/29 04:14:55;;;;;;;2.15;0.90;;;;;;;;;;4929058;28;20444;-76
2021/06/29 04:17:21;;;;;;;1.45;1.17;;;;;;;;;;4929898;29;20063;-77
2021/06/29 04:19:48;;;;;;;1.00;0.80;;;;;;;;;;4930306;29;20064;-77
2021/06/29 04:22:14;;;;;;;2.22;0.80;;;;;;;;;;4929994;28;20500;-76
2021/06/29 04:24:41;;;;;;;2.55;1.02;;;;;;;;;;4928732;29;20067;-76
2021/06/29 04:27:07;;;;;;;2.17;1.00;;;;;;;;;;4925882;28;20392;-76
2021/06/29 04:29:34;;;;;;;2.20;1.00;;;;;;;;;;4927975;28;20067;-75
2021/06/29 04:32:00;;;;;;;1.27;0.77;;;;;;;;;;4933332;28;20067;-76
2021/06/29 04:34:27;;;;;;;2.30;0.80;;;;;;;;;;4928917;28;20079;-76
2021/06/29 04:36:53;;;;;;;2.78;1.08;;;;;;;;;;4930483;28;20070;-76
2021/06/29 04:39:20;;;;;;;2.20;0.88;;;;;;;;;;4929657;29;20063;-76
2021/06/29 04:41:46;;;;;;;3.53;1.13;;;;;;;;;;4928060;28;20386;-76
2021/06/29 04:44:13;;;;;;;1.52;0.90;;;;;;;;;;4929819;28;20078;-76
2021/06/29 04:46:40;;;;;;;2.92;1.20;;;;;;;;;;4928961;28;20031;-78
2021/06/29 04:49:06;;;;;;;1.88;1.00;;;;;;;;;;4929660;29;20059;-76
2021/06/29 04:51:33;;;;;;;2.15;0.80;;;;;;;;;;4926974;28;20118;-77
2021/06/29 04:53:59;;;;;;;2.55;0.88;;;;;;;;;;4929246;28;20055;-77
2021/06/29 04:56:25;;;;;;;1.88;1.08;;;;;;;;;;4928466;28;20063;-78
2021/06/29 04:58:53;;;;;;;2.42;0.90;;;;;;;;;;4928054;28;20199;-77
2021/06/29 05:01:20;;;;;;;1.60;0.93;;;;;;;;;;4929541;29;20039;-77
2021/06/29 05:03:46;;;;;;;2.38;0.80;;;;;;;;;;4927588;28;20357;-76
2021/06/29 05:06:15;;;;;;;3.63;1.10;;;;;;;;;;4928773;29;20048;-77
2021/06/29 05:08:41;;;;;;;1.40;0.80;;;;;;;;;;4928487;28;20468;-74
2021/06/29 05:11:07;;;;;;;0.80;0.65;;;;;;;;;;4932611;28;20538;-75
2021/06/29 05:13:34;;;;;;;0.90;0.55;;;;;;;;;;4929156;28;20055;-74
2021/06/29 05:16:00;;;;;;;1.23;0.60;;;;;;;;;;4929317;29;20504;-75
2021/06/29 05:18:27;;;;;;;1.33;0.70;;;;;;;;;;4926244;29;20082;-75
2021/06/29 05:20:54;;;;;;;1.70;0.60;;;;;;;;;;4928839;29;20060;-77
2021/06/29 05:23:21;;;;;;;1.38;0.90;;;;;;;;;;4929006;28;20049;-76
2021/06/29 05:25:48;;;;;;;1.27;0.80;;;;;;;;;;4929220;28;20063;-77
2021/06/29 05:28:18;;;;;;;2.15;0.75;;;;;;;;;;4928758;28;20067;-76
2021/06/29 05:30:45;;;;;;;1.90;1.10;;;;;;;;;;4928179;28;20060;-76
2021/06/29 05:33:12;;;;;;;1.83;1.00;;;;;;;;;;4930665;28;20646;-76
2021/06/29 05:35:39;;;;;;;3.00;1.38;;;;;;;;;;4928782;28;20063;-76
2021/06/29 05:38:07;;;;;;;2.03;1.13;;;;;;;;;;4927358;28;20067;-76
2021/06/29 05:40:33;;;;;;;1.73;1.02;;;;;;;;;;4927827;28;20095;-78
2021/06/29 05:43:00;;;;;;;1.42;0.80;;;;;;;;;;4929626;28;20071;-78
2021/06/29 05:45:26;;;;;;;3.05;0.93;;;;;;;;;;4928675;29;20467;-80
2021/06/29 05:47:54;;;;;;;3.40;0.95;;;;;;;;;;4929312;29;20063;-80
2021/06/29 05:50:21;;;;;;;1.60;0.82;;;;;;;;;;4929051;28;20110;-80
2021/06/29 05:52:48;;;;;;;1.00;0.68;;;;;;;;;;4928262;29;20478;-79
2021/06/29 05:55:14;;;;;;;1.73;0.80;;;;;;;;;;4928635;28;20098;-79
2021/06/29 05:57:41;;;;;;;1.85;0.73;;;;;;;;;;4917349;29;20068;-79
2021/06/29 06:00:14;;;;;;;2.03;0.88;;;;;;;;;;4928362;28;20083;-78
2021/06/29 06:02:41;;;;;;;1.63;0.88;;;;;;;;;;4919593;28;20048;-80
2021/06/29 06:05:08;;;;;;;7.70;1.00;;;;;;;;;;4942813;29;20066;-80
2021/06/29 06:07:35;;;;;;;1.90;0.90;;;;;;;;;;4928535;29;20036;-80
2021/06/29 06:10:02;;;;;;;2.17;0.90;;;;;;;;;;4933766;28;20083;-81
2021/06/29 06:12:28;;;;;;;1.85;1.05;;;;;;;;;;4933107;28;20047;-79
2021/06/29 06:14:55;;;;;;;3.20;1.20;;;;;;;;;;4931905;29;20063;-79
2021/06/29 06:17:22;;;;;;;1.67;1.00;;;;;;;;;;4929241;28;20063;-80
2021/06/29 06:19:49;;;;;;;3.25;1.20;;;;;;;;;;4931753;28;20048;-81
2021/06/29 06:22:15;;;;;;;2.10;1.10;;;;;;;;;;4932871;29;20056;-81
2021/06/29 06:24:42;;;;;;;2.10;0.98;;;;;;;;;;4937064;28;20133;-81
2021/06/29 06:27:12;;;;;;;2.85;1.10;;;;;;;;;;4937797;28;20036;-81
2021/06/29 06:29:38;;;;;;;2.72;1.50;;;;;;;;;;4937360;28;20503;-81
2021/06/29 06:32:05;;;;;;;3.80;1.20;;;;;;;;;;4934845;28;20119;-81
2021/06/29 06:34:31;;;;;;;2.08;1.10;;;;;;;;;;4931582;28;20067;-81
2021/06/29 06:36:58;;;;;;;5.18;1.25;;;;;;;;;;4935841;28;20459;-82
2021/06/29 06:39:24;;;;;;;3.40;1.27;;;;;;;;;;4933714;28;20510;-81
2021/06/29 06:41:51;;;;;;;3.05;1.10;;;;;;;;;;4931829;29;20055;-81
2021/06/29 06:44:17;;;;;;;3.83;1.17;;;;;;;;;;4931039;28;20063;-80
2021/06/29 06:46:43;;;;;;;1.50;1.05;;;;;;;;;;4946014;28;20058;-81
2021/06/29 06:49:10;;;;;;;2.83;1.55;;;;;;;;;;4947870;28;20135;-80
2021/06/29 06:51:36;;;;;;;4.63;1.88;;;;;;;;;;4938453;28;20055;-81
2021/06/29 06:54:03;;;;;;;2.67;1.42;;;;;;;;;;4937942;28;20095;-78
2021/06/29 06:56:29;;;;;;;4.45;1.70;;;;;;;;;;4929984;28;20070;-77
2021/06/29 06:58:56;;;;;;;2.95;1.30;;;;;;;;;;4931078;28;20547;-79
2021/06/29 07:01:25;;;;;;;2.17;0.93;;;;;;;;;;4932083;28;20147;-77
2021/06/29 07:03:51;;;;;;;2.10;0.77;;;;;;;;;;4930325;28;20132;-77
2021/06/29 07:06:18;;;;;;;1.85;1.00;;;;;;;;;;4932515;28;21131;-78
2021/06/29 07:08:44;;;;;;;2.40;1.02;;;;;;;;;;4930400;29;20076;-79
2021/06/29 07:11:11;;;;;;;5.70;1.30;;;;;;;;;;4930873;28;20078;-79
2021/06/29 07:13:37;;;;;;;5.35;1.60;;;;;;;;;;4927873;28;20087;-79
2021/06/29 07:16:04;;;;;;;3.63;1.40;;;;;;;;;;4928774;29;20066;-78
2021/06/29 07:18:31;;;;;;;2.10;1.50;;;;;;;;;;4929616;28;20057;-81
2021/06/29 07:20:57;;;;;;;4.57;1.90;;;;;;;;;;4930360;28;20067;-82
2021/06/29 07:23:24;;;;;;;3.13;1.65;;;;;;;;;;4930244;28;20071;-81
2021/06/29 07:25:50;;;;;;;3.15;1.70;;;;;;;;;;4943951;28;20056;-82
2021/06/29 07:28:17;;;;;;;2.47;1.75;;;;;;;;;;4931387;28;20063;-82
2021/06/29 07:30:43;;;;;;;6.38;2.33;;;;;;;;;;4931178;28;20099;-81
2021/06/29 07:33:10;;;;;;;3.25;2.42;;;;;;;;;;4931954;28;20058;-81
2021/06/29 07:35:36;;;;;;;3.40;2.38;;;;;;;;;;4931961;28;20083;-81
2021/06/29 07:38:03;;;;;;;3.42;2.17;;;;;;;;;;4930885;29;20103;-81
2021/06/29 07:40:30;;;;;;;5.60;2.58;;;;;;;;;;4931669;28;20448;-85
2021/06/29 07:42:57;;;;;;;5.47;2.67;;;;;;;;;;4932192;28;20091;-81
2021/06/29 07:45:27;;;;;;;4.43;2.50;;;;;;;;;;4929885;28;20055;-82
2021/06/29 07:47:55;;;;;;;3.45;2.55;;;;;;;;;;4944089;28;20487;-81
2021/06/29 07:50:22;;;;;;;5.72;3.17;;;;;;;;;;4932125;28;20126;-83
2021/06/29 07:52:48;;;;;;;4.43;2.92;;;;;;;;;;4930346;28;20091;-82
2021/06/29 07:55:15;;;;;;;4.63;3.00;;;;;;;;;;4929078;28;21219;-82
2021/06/29 07:57:41;;;;;;;5.25;3.33;;;;;;;;;;4929715;28;20063;-82
2021/06/29 08:00:09;;;;;;;4.18;3.05;;;;;;;;;;4931140;29;20408;-85
2021/06/29 08:02:35;;;;;;;5.10;2.95;;;;;;;;;;4926956;28;20036;-76
2021/06/29 08:05:02;;;;;;;3.33;2.97;;;;;;;;;;4929646;28;20071;-74
2021/06/29 08:07:29;;;;;;;7.15;2.80;;;;;;;;;;4932807;28;20795;-75
2021/06/29 08:09:56;;;;;;;4.20;2.97;;;;;;;;;;4929284;28;20204;-74
2021/06/29 08:12:22;;;;;;;5.15;3.47;;;;;;;;;;4927087;29;20070;-74
2021/06/29 08:14:50;;;;;;;5.63;3.17;;;;;;;;;;4928578;28;20051;-74
2021/06/29 08:17:16;;;;;;;7.32;3.78;;;;;;;;;;4929214;29;20078;-74
2021/06/29 08:19:43;;;;;;;5.20;3.65;;;;;;;;;;4931689;28;20536;-74
2021/06/29 08:22:09;;;;;;;5.13;3.88;;;;;;;;;;4947535;28;20051;-73
2021/06/29 08:24:36;;;;;;;5.93;3.75;;;;;;;;;;4923396;29;20151;-74
2021/06/29 08:27:02;;;;;;;6.93;3.90;;;;;;;;;;4929142;28;20453;-74
2021/06/29 08:29:28;;;;;;;4.82;3.70;;;;;;;;;;4928318;28;20079;-74
2021/06/29 08:31:55;;;;;;;4.53;3.53;;;;;;;;;;4927701;29;20071;-73
2021/06/29 08:34:21;;;;;;;6.07;3.13;;;;;;;;;;4931277;28;20063;-74
2021/06/29 08:36:48;;;;;;;5.28;2.72;;;;;;;;;;4927167;28;20472;-73
2021/06/29 08:39:15;;;;;;;5.38;2.80;;;;;;;;;;4928665;29;20063;-73
2021/06/29 08:41:42;;;;;;;5.28;2.85;;;;;;;;;;4928284;28;20068;-73
2021/06/29 08:44:09;;;;;;;3.75;2.60;;;;;;;;;;4926480;29;20055;-73
2021/06/29 08:46:35;;;;;;;5.63;2.88;;;;;;;;;;4926253;28;20059;-74
2021/06/29 08:49:06;;;;;;;4.32;3.03;;;;;;;;;;4941967;28;20056;-72
2021/06/29 08:51:41;;;;;;;4.65;2.75;;;;;;;;;;4925710;28;20075;-73
2021/06/29 08:54:10;;;;;;;6.25;2.90;;;;;;;;;;4927627;28;20075;-74
2021/06/29 08:56:36;;;;;;;3.83;2.65;;;;;;;;;;4929446;28;20063;-74
2021/06/29 08:59:03;;;;;;;5.00;4.22;;;;;;;;;;4928298;28;20070;-74
2021/06/29 09:01:30;;;;;;;6.38;4.13;;;;;;;;;;4945419;28;20071;-73
2021/06/29 09:03:57;;;;;;;5.60;4.00;;;;;;;;;;4926821;28;20167;-74
2021/06/29 09:06:34;;;;;;;6.57;3.15;;;;;;;;;;4925864;28;20075;-74
2021/06/29 09:09:19;;;;;;;4.43;2.92;;;;;;;;;;4929566;28;20510;-74
2021/06/29 09:11:45;;;;;;;5.68;3.35;;;;;;;;;;4926288;28;20551;-74
2021/06/29 09:14:15;;;;;;;5.70;2.97;;;;;;;;;;4940231;28;20063;-74
2021/06/29 09:16:42;;;;;;;4.85;2.40;;;;;;;;;;4925486;28;20074;-74
2021/06/29 09:19:09;;;;;;;5.10;2.42;;;;;;;;;;4927654;28;20122;-74
2021/06/29 09:21:38;;;;;;;5.28;2.97;;;;;;;;;;4928846;28;20059;-74
2021/06/29 09:24:05;;;;;;;6.53;2.50;;;;;;;;;;4930365;28;20132;-75
2021/06/29 09:26:37;;;;;;;2.75;2.28;;;;;;;;;;4929312;28;20055;-74
2021/06/29 09:29:06;;;;;;;4.43;2.80;;;;;;;;;;4927826;28;20099;-74
2021/06/29 09:31:34;;;;;;;5.28;2.25;;;;;;;;;;4929199;28;20452;-74
2021/06/29 09:34:08;;;;;;;3.25;2.53;;;;;;;;;;4928392;28;20071;-74
2021/06/29 09:36:35;;;;;;;3.90;2.53;;;;;;;;;;4928943;28;20079;-74
2021/06/29 09:39:06;;;;;;;4.38;2.47;;;;;;;;;;4932693;28;20059;-74
2021/06/29 09:41:35;;;;;;;5.53;2.80;;;;;;;;;;4926675;28;20035;-75
2021/06/29 09:44:04;;;;;;;5.53;2.60;;;;;;;;;;4934627;28;20063;-73
2021/06/29 09:46:30;;;;;;;4.93;2.38;;;;;;;;;;4932518;28;20056;-74
2021/06/29 09:48:59;;;;;;;5.63;2.63;;;;;;;;;;4948664;28;20051;-75
2021/06/29 09:51:28;;;;;;;7.40;2.67;;;;;;;;;;4930308;28;20611;-74
2021/06/29 09:53:56;;;;;;;4.53;2.47;;;;;;;;;;4935682;28;20110;-74
2021/06/29 09:56:24;;;;;;;4.03;2.38;;;;;;;;;;4930798;29;20060;-75
2021/06/29 09:58:52;;;;;;;3.78;2.53;;;;;;;;;;4933492;29;20070;-73
2021/06/29 10:01:20;;;;;;;4.35;2.72;;;;;;;;;;4927372;29;20126;-74
2021/06/29 10:03:50;;;;;;;4.82;2.67;;;;;;;;;;4929863;29;21386;-74
2021/06/29 10:06:23;;;;;;;5.05;2.90;;;;;;;;;;4940630;28;20597;-74
2021/06/29 10:08:51;;;;;;;4.97;2.53;;;;;;;;;;4947304;28;20402;-73
2021/06/29 10:11:18;;;;;;;6.15;3.15;;;;;;;;;;4940463;28;20071;-75
2021/06/29 10:14:08;;;;;;;5.00;2.70;;;;;;;;;;4930631;28;20091;-74
2021/06/29 10:16:47;;;;;;;3.78;2.45;;;;;;;;;;4924961;28;20111;-73
2021/06/29 10:19:28;;;;;;;4.55;2.50;;;;;;;;;;4933363;29;20633;-73
2021/06/29 10:21:56;;;;;;;3.80;2.67;;;;;;;;;;4923159;29;20535;-74
2021/06/29 10:24:24;;;;;;;4.35;2.50;;;;;;;;;;4929623;28;20078;-75
2021/06/29 10:26:51;;;;;;;4.38;2.58;;;;;;;;;;4933547;28;20070;-74
2021/06/29 10:29:18;;;;;;;4.03;2.70;;;;;;;;;;4930367;29;20052;-74
2021/06/29 10:31:46;;;;;;;4.30;2.72;;;;;;;;;;4931795;29;20579;-74
2021/06/29 10:34:13;;;;;;;5.93;2.85;;;;;;;;;;4943555;28;20051;-74
2021/06/29 10:36:41;;;;;;;4.70;2.90;;;;;;;;;;4942692;28;20109;-74
2021/06/29 10:39:08;;;;;;;4.45;3.05;;;;;;;;;;4931931;29;20059;-74
2021/06/29 10:41:39;;;;;;;4.10;2.78;;;;;;;;;;4931584;28;20456;-73
2021/06/29 10:44:10;;;;;;;4.35;3.33;;;;;;;;;;4929955;29;20075;-74
2021/06/29 10:46:40;;;;;;;5.47;3.50;;;;;;;;;;4921241;29;20123;-75
2021/06/29 10:49:25;;;;;;;4.67;3.20;;;;;;;;;;4931850;29;20063;-73
2021/06/29 10:51:52;;;;;;;6.60;2.97;;;;;;;;;;4929776;28;20343;-74
2021/06/29 10:54:37;;;;;;;5.00;3.38;;;;;;;;;;4927218;28;20056;-75
2021/06/29 10:57:15;;;;;;;3.58;3.08;;;;;;;;;;4923475;28;20488;-74
2021/06/29 10:59:42;;;;;;;5.72;2.65;;;;;;;;;;4932091;29;20044;-75
2021/06/29 11:02:12;;;;;;;6.65;3.03;;;;;;;;;;4929708;28;20074;-76
2021/06/29 11:05:17;;;;;;;5.22;2.90;;;;;;;;;;4935245;28;20095;-74
2021/06/29 11:07:46;;;;;;;6.22;2.50;;;;;;;;;;4907601;29;20033;-74
2021/06/29 11:10:14;;;;;;;5.80;3.00;;;;;;;;;;4911851;29;20123;-74
2021/06/29 11:12:52;;;;;;;5.55;2.50;;;;;;;;;;4918015;29;20035;-73
2021/06/29 11:15:19;;;;;;;3.13;2.40;;;;;;;;;;4932464;28;20142;-74
2021/06/29 11:17:49;;;;;;;4.55;2.50;;;;;;;;;;4929995;29;20709;-73
2021/06/29 11:20:18;;;;;;;5.10;2.40;;;;;;;;;;4935475;28;20570;-73
2021/06/29 11:23:00;;;;;;;4.10;2.63;;;;;;;;;;4931258;28;20443;-73
2021/06/29 11:25:36;;;;;;;2.92;2.22;;;;;;;;;;4931494;29;20115;-75
2021/06/29 11:28:02;;;;;;;6.28;2.90;;;;;;;;;;4906694;29;20095;-74
2021/06/29 11:30:47;;;;;;;5.85;2.55;;;;;;;;;;4925435;28;20142;-74
2021/06/29 11:33:32;;;;;;;4.88;2.50;;;;;;;;;;4930786;28;20062;-73
2021/06/29 11:35:59;;;;;;;3.50;2.45;;;;;;;;;;4925977;29;21341;-75
2021/06/29 11:38:35;;;;;;;3.58;2.38;;;;;;;;;;4932239;28;20073;-73
2021/06/29 11:41:20;;;;;;;4.22;2.40;;;;;;;;;;4929796;28;20147;-74
2021/06/29 11:43:46;;;;;;;3.55;2.20;;;;;;;;;;4928721;28;20079;-73
2021/06/29 11:46:32;;;;;;;3.65;2.85;;;;;;;;;;4929904;28;20398;-74
2021/06/29 11:49:08;;;;;;;3.30;2.40;;;;;;;;;;4927710;28;21328;-74
2021/06/29 11:51:58;;;;;;;3.40;2.25;;;;;;;;;;4920504;28;20452;-73
2021/06/29 11:54:38;;;;;;;3.63;2.38;;;;;;;;;;4915940;29;20072;-73
2021/06/29 11:57:29;;;;;;;3.30;2.40;;;;;;;;;;4930719;28;20031;-74
2021/06/29 11:59:57;;;;;;;4.53;2.50;;;;;;;;;;4927084;29;20115;-73
2021/06/29 12:02:30;;;;;;;6.82;2.17;;;;;;;;;;4928998;28;20590;-75
2021/06/29 12:04:56;;;;;;;5.50;2.10;;;;;;;;;;4920666;29;20447;-74
2021/06/29 12:07:42;;;;;;;4.10;2.13;;;;;;;;;;4926110;29;20515;-74
2021/06/29 12:10:21;;;;;;;7.43;2.25;;;;;;;;;;4914157;28;20071;-75
2021/06/29 12:12:48;;;;;;;5.35;2.05;;;;;;;;;;4937072;28;20031;-74
2021/06/29 12:15:15;;;;;;;5.20;2.13;;;;;;;;;;4925404;28;20134;-75
2021/06/29 12:17:51;;;;;;;3.38;2.10;;;;;;;;;;4927531;28;20063;-80
2021/06/29 12:20:19;;;;;;;3.40;1.73;;;;;;;;;;4922398;28;20078;-77
2021/06/29 12:22:46;;;;;;;5.20;1.92;;;;;;;;;;4927147;28;20067;-77
2021/06/29 12:25:20;;;;;;;4.40;2.10;;;;;;;;;;4929861;28;20071;-77
2021/06/29 12:27:55;;;;;;;4.18;1.85;;;;;;;;;;4920402;29;20891;-78
2021/06/29 12:30:23;;;;;;;3.80;2.13;;;;;;;;;;4925673;29;20075;-78
2021/06/29 12:32:50;;;;;;;7.57;2.15;;;;;;;;;;4927086;29;21239;-77
2021/06/29 12:35:18;;;;;;;3.63;2.38;;;;;;;;;;4928765;29;20287;-78
2021/06/29 12:38:00;;;;;;;4.57;2.40;;;;;;;;;;4928225;28;20055;-76
2021/06/29 12:40:27;;;;;;;4.93;2.15;;;;;;;;;;4940486;28;20064;-79
2021/06/29 12:42:54;;;;;;;3.30;2.25;;;;;;;;;;4927827;28;20087;-76
2021/06/29 12:45:21;;;;;;;5.15;2.38;;;;;;;;;;4933556;28;20851;-76
2021/06/29 12:48:03;;;;;;;3.80;2.45;;;;;;;;;;4927695;28;20035;-78
2021/06/29 12:50:29;;;;;;;6.15;2.25;;;;;;;;;;4929499;29;20096;-78
2021/06/29 12:52:56;;;;;;;4.30;2.38;;;;;;;;;;4937453;28;20047;-78
2021/06/29 12:55:26;;;;;;;5.55;2.30;;;;;;;;;;4921164;28;20055;-81
2021/06/29 12:58:02;;;;;;;3.47;2.25;;;;;;;;;;4930015;28;20055;-77
2021/06/29 13:00:29;;;;;;;3.75;2.10;;;;;;;;;;4928315;28;20063;-76
2021/06/29 13:02:56;;;;;;;4.90;1.80;;;;;;;;;;4932083;29;20063;-77
2021/06/29 13:05:23;;;;;;;4.13;2.15;;;;;;;;;;4931112;29;20110;-79
2021/06/29 13:07:50;;;;;;;4.65;2.42;;;;;;;;;;4930208;29;20566;-77
2021/06/29 13:10:17;;;;;;;3.53;2.60;;;;;;;;;;4928289;29;20059;-77
2021/06/29 13:12:44;;;;;;;4.32;2.40;;;;;;;;;;4919421;28;20059;-76
2021/06/29 13:15:11;;;;;;;3.33;2.45;;;;;;;;;;4928874;28;20051;-76
2021/06/29 13:17:52;;;;;;;5.10;2.40;;;;;;;;;;4929242;29;20416;-77
2021/06/29 13:20:19;;;;;;;5.03;2.47;;;;;;;;;;4929052;28;20059;-77
2021/06/29 13:22:49;;;;;;;4.35;2.40;;;;;;;;;;4934874;28;20047;-78
2021/06/29 13:25:35;;;;;;;4.53;2.65;;;;;;;;;;4925929;29;20059;-77
2021/06/29 13:28:15;;;;;;;3.60;2.15;;;;;;;;;;4925817;28;20060;-76
2021/06/29 13:30:42;;;;;;;3.45;2.20;;;;;;;;;;4925480;28;20059;-77
2021/06/29 13:33:09;;;;;;;3.67;2.00;;;;;;;;;;4930392;28;20552;-78
2021/06/29 13:35:36;;;;;;;4.85;2.30;;;;;;;;;;4920443;28;20071;-77
2021/06/29 13:38:10;;;;;;;5.47;2.17;;;;;;;;;;4929680;28;20039;-78
2021/06/29 13:40:38;;;;;;;7.18;2.20;;;;;;;;;;4923020;28;20112;-77
2021/06/29 13:43:13;;;;;;;3.10;1.85;;;;;;;;;;4930081;29;20083;-78
2021/06/29 13:45:44;;;;;;;3.30;2.15;;;;;;;;;;4923341;29;20126;-78
2021/06/29 13:48:11;;;;;;;4.53;2.20;;;;;;;;;;4929862;28;20040;-77
2021/06/29 13:50:45;;;;;;;5.50;2.40;;;;;;;;;;4927696;28;20122;-76
2021/06/29 13:53:12;;;;;;;4.88;2.30;;;;;;;;;;4930029;29;20107;-78
2021/06/29 13:56:00;;;;;;;3.33;2.22;;;;;;;;;;4927517;29;20064;-78
2021/06/29 13:58:28;;;;;;;3.88;2.28;;;;;;;;;;4942024;28;20511;-77
2021/06/29 14:00:58;;;;;;;5.38;2.40;;;;;;;;;;4929847;28;20180;-78
2021/06/29 14:03:26;;;;;;;5.25;2.80;;;;;;;;;;4929538;28;20064;-78
2021/06/29 14:06:08;;;;;;;3.65;2.50;;;;;;;;;;4928614;29;20140;-76
2021/06/29 14:08:40;;;;;;;6.78;2.60;;;;;;;;;;4925288;28;20076;-76
2021/06/29 14:11:09;;;;;;;3.70;2.40;;;;;;;;;;4923171;28;20140;-75
2021/06/29 14:13:42;;;;;;;4.03;2.30;;;;;;;;;;4923511;28;20495;-76
2021/06/29 14:16:10;;;;;;;6.85;3.00;;;;;;;;;;4926704;28;20515;-77
2021/06/29 14:18:37;;;;;;;5.80;3.00;;;;;;;;;;4927921;28;20068;-75
2021/06/29 14:21:05;;;;;;;3.90;2.65;;;;;;;;;;4925050;28;20071;-75
2021/06/29 14:23:35;;;;;;;6.53;2.45;;;;;;;;;;4934255;28;20066;-75
2021/06/29 14:26:01;;;;;;;4.78;2.90;;;;;;;;;;4941555;28;20488;-76
2021/06/29 14:28:29;;;;;;;4.80;2.58;;;;;;;;;;4928908;28;20072;-76
2021/06/29 14:30:55;;;;;;;3.63;2.55;;;;;;;;;;4932003;28;20036;-76
2021/06/29 14:33:22;;;;;;;5.78;2.70;;;;;;;;;;4930848;28;20118;-74
2021/06/29 14:35:48;;;;;;;5.88;2.90;;;;;;;;;;4929278;28;20478;-77
2021/06/29 14:38:15;;;;;;;5.53;3.03;;;;;;;;;;4932500;28;20483;-76
2021/06/29 14:40:42;;;;;;;4.72;3.28;;;;;;;;;;4932224;28;20059;-76
2021/06/29 14:43:10;;;;;;;5.53;2.70;;;;;;;;;;4930360;28;20067;-76
2021/06/29 14:45:37;;;;;;;4.68;2.78;;;;;;;;;;4931638;28;20558;-76
2021/06/29 14:48:04;;;;;;;8.73;2.85;;;;;;;;;;4921317;28;20123;-76
2021/06/29 14:50:30;;;;;;;4.20;2.90;;;;;;;;;;4931086;28;20063;-76
2021/06/29 14:52:56;;;;;;;5.38;2.85;;;;;;;;;;4932343;28;20060;-75
2021/06/29 14:55:23;;;;;;;4.55;2.90;;;;;;;;;;4931215;28;20487;-75
2021/06/29 14:57:50;;;;;;;4.43;2.92;;;;;;;;;;4925568;28;20032;-75